Date,TemperatureHighF,TemperatureAvgF,TemperatureLowF,DewpointHighF,DewpointAvgF,DewpointLowF,HumidityHigh,HumidityAvg,HumidityLow,PressureMaxIn,PressureMinIn,WindSpeedMaxMPH,WindSpeedAvgMPH,GustSpeedMaxMPH,PrecipitationSumIn
2013-2-24,32.0,32.0,32.0,18.9,18.9,18.9,58,58,58,30.16,30.15,7,4,9,0.00
2013-2-25,49.8,35.4,23.9,24.4,21.3,16.1,78,58,36,30.27,30.17,6,2,6,0.00
2013-2-26,41.0,39.8,39.0,38.4,37.7,37.1,93,92,89,29.83,29.73,9,3,9,0.76
2013-2-27,50.7,38.8,36.5,37.8,34.0,32.9,89,84,52,29.78,29.63,9,1,10,0.05
2013-2-28,44.6,39.4,33.4,33.8,29.2,26.4,77,67,52,29.79,29.71,15,3,15,0.00
2013-3-1,41.5,37.2,32.4,30.7,26.7,21.5,76,66,51,29.97,29.79,6,3,6,0.00
2013-3-2,36.0,31.9,29.3,22.1,20.1,16.9,67,62,47,29.95,29.89,8,4,8,0.00
2013-3-3,28.6,28.1,27.1,20.4,18.1,16.5,71,66,61,29.93,29.89,12,3,12,0.00
2013-3-4,42.1,30.4,25.3,19.7,14.8,10.5,66,52,40,30.09,29.98,32,5,32,4.16
2013-3-5,54.0,38.5,21.2,27.2,19.1,13.1,77,49,21,30.12,29.88,8,3,14,0.00
2013-3-6,38.5,35.6,32.2,33.5,30.8,27.4,89,82,64,30.04,29.75,14,6,18,0.47
2013-3-7,50.0,39.8,29.1,29.9,27.8,23.4,86,64,41,30.22,30.08,10,4,10,0.00
2013-3-8,49.6,40.8,31.6,28.9,26.9,24.5,78,58,44,30.36,30.20,19,6,19,0.00
2013-3-9,63.0,51.5,36.9,32.1,27.4,23.0,76,43,23,30.41,30.34,9,3,9,0.00
2013-3-10,65.5,50.2,32.4,34.2,27.4,23.3,80,45,21,30.38,30.26,9,3,10,0.00
2013-3-11,59.0,47.9,37.9,46.7,39.0,29.0,89,72,50,30.27,30.02,11,3,11,0.00
2013-3-12,56.3,48.2,41.2,50.9,39.1,29.9,94,72,50,29.99,29.83,13,5,14,0.63
2013-3-13,48.0,38.5,30.6,30.1,24.2,18.8,77,57,34,30.11,29.96,13,6,21,0.00
2013-3-14,43.5,35.8,29.3,17.9,15.3,11.7,59,44,28,30.17,30.09,16,6,16,0.00
2013-3-15,55.4,43.1,25.2,34.4,24.4,15.3,75,50,28,30.13,29.84,12,4,12,0.00
2013-3-16,46.4,43.1,37.8,37.2,34.9,32.5,83,73,65,29.88,29.77,5,2,8,0.01
2013-3-17,38.8,37.1,35.2,24.5,23.1,21.6,63,57,53,30.30,30.23,3,1,4,0.01
2013-3-18,34.7,33.4,31.1,30.5,24.9,17.3,88,72,52,30.34,29.95,11,3,11,0.00
2013-3-19,57.9,45.3,32.9,37.8,27.2,13.3,91,55,24,29.95,29.81,19,5,19,0.30
2013-3-20,32.4,31.4,28.0,17.1,15.8,13.3,60,52,45,30.05,30.01,8,6,8,0.30
2013-3-21,35.6,30.1,25.5,23.6,10.4,3.3,64,44,26,29.95,29.83,11,4,11,0.00
2013-3-22,45.5,32.5,25.2,19.6,15.2,8.2,60,49,31,30.06,29.91,12,5,12,0.00
2013-3-23,53.4,42.6,28.2,24.9,22.1,18.3,66,45,27,29.95,29.85,14,5,14,0.00
2013-3-24,42.3,32.5,25.5,24.2,20.7,18.1,76,63,46,29.93,29.75,6,2,11,0.00
2013-3-25,34.2,34.2,34.2,29.6,29.6,29.6,83,83,83,29.57,29.57,2,2,2,0.00
2013-3-26,51.6,40.3,29.3,32.7,29.6,25.2,90,68,36,29.88,29.64,8,3,8,0.02
2013-3-27,48.6,41.3,35.4,32.7,28.0,24.2,71,60,43,30.02,29.91,18,5,18,0.00
2013-3-28,48.7,41.4,36.0,30.6,28.7,26.4,74,61,45,30.14,30.02,20,4,20,0.00
2013-3-29,58.3,44.8,34.0,33.3,29.1,23.9,77,56,30,30.18,30.07,10,3,10,0.00
2013-3-30,61.7,44.6,28.2,35.0,25.6,18.5,86,55,22,30.18,30.06,8,3,8,0.00
2013-3-31,48.0,44.1,35.6,45.5,39.6,28.5,96,85,61,29.99,29.71,5,1,5,0.20
2013-4-1,63.0,44.3,31.1,46.8,35.0,22.1,99,73,40,29.94,29.71,11,3,11,0.02
2013-4-2,46.8,35.4,25.7,22.5,17.6,10.5,76,51,25,30.10,29.94,14,4,14,0.00
2013-4-3,50.5,36.8,24.1,20.4,16.3,9.5,74,47,23,30.27,29.36,15,4,15,0.00
2013-4-4,50.2,35.8,21.4,21.8,14.3,10.3,70,45,24,30.32,30.06,7,3,7,0.00
2013-4-5,66.2,49.8,31.8,35.5,27.0,19.3,81,47,22,29.99,29.77,15,4,15,0.00
2013-4-6,58.1,43.6,27.9,26.7,21.7,18.7,76,45,24,30.25,30.01,8,3,8,0.00
2013-4-7,71.4,52.2,34.9,46.4,36.3,25.9,74,56,36,30.18,29.91,12,4,12,0.00
2013-4-8,81.7,64.1,45.5,50.6,46.6,41.3,85,58,27,30.02,29.90,10,3,10,0.00
2013-4-9,86.5,68.3,51.8,56.5,52.4,46.8,83,60,35,30.05,29.89,8,2,8,0.00
2013-4-10,92.3,73.2,54.9,60.7,55.8,50.1,85,58,31,29.93,29.76,10,3,10,0.00
2013-4-11,86.7,71.1,54.0,61.2,56.7,50.5,88,63,41,29.87,29.71,10,4,14,0.00
2013-4-12,71.6,58.1,51.8,61.2,54.4,50.4,98,88,68,29.77,29.57,8,2,8,0.53
2013-4-13,68.7,54.5,43.2,40.2,36.7,31.3,84,54,27,29.93,29.75,14,4,14,0.00
2013-4-14,68.2,52.9,38.8,43.3,37.1,32.1,90,59,29,30.11,29.94,11,3,11,0.00
2013-4-15,66.7,57.7,50.2,51.1,47.3,43.4,84,69,53,30.22,30.08,11,4,11,0.00
2013-4-16,76.3,63.0,54.5,59.4,53.6,46.7,85,72,55,30.23,30.06,11,4,11,0.00
2013-4-17,74.5,64.7,55.0,64.9,57.2,52.1,99,78,56,30.18,30.08,8,2,8,0.31
2013-4-18,74.5,63.4,58.3,64.9,57.8,54.2,96,83,64,30.19,29.97,14,3,14,0.09
2013-4-19,74.1,64.9,55.0,65.0,60.4,54.2,97,86,70,29.94,29.58,13,4,13,0.90
2013-4-20,59.0,51.3,41.7,39.9,30.8,24.8,69,47,28,30.16,29.77,20,6,20,0.00
2013-4-21,58.8,44.2,29.8,32.8,25.9,18.3,80,52,28,30.52,30.31,8,3,8,0.00
2013-4-22,59.9,46.6,33.3,34.7,32.1,29.7,89,61,34,30.49,30.32,17,4,17,0.00
2013-4-23,62.8,47.5,36.5,44.6,38.8,31.7,88,73,48,30.34,30.07,6,2,6,0.00
2013-4-24,77.5,56.1,37.9,59.0,47.1,36.6,96,75,47,30.06,29.73,12,4,12,0.17
2013-4-25,67.1,51.4,42.3,42.5,34.4,27.0,84,56,25,30.26,29.99,10,4,10,0.00
2013-4-26,68.7,52.9,38.3,39.8,33.6,26.8,90,54,24,30.40,30.25,8,3,8,0.00
2013-4-27,73.2,55.2,36.0,45.6,39.1,32.8,92,61,28,30.35,30.23,11,3,11,0.00
2013-4-28,62.1,47.5,41.4,46.3,41.3,39.5,93,81,50,30.23,30.19,4,2,10,0.00
2013-4-29,61.0,55.1,50.9,57.7,52.7,48.1,96,92,82,30.09,29.99,5,2,5,0.27
2013-4-30,60.8,56.7,53.8,55.5,53.8,52.3,97,90,82,30.20,30.05,5,1,5,0.04
2013-5-1,75.4,58.0,43.3,53.2,41.4,29.4,98,62,22,30.37,30.25,8,3,8,0.00
2013-5-2,74.1,57.2,38.7,50.9,43.7,38.4,99,66,33,30.38,30.27,13,3,13,0.00
2013-5-3,72.9,57.0,41.9,47.8,44.2,40.7,98,67,34,30.34,30.23,10,4,10,0.00
2013-5-4,71.8,55.0,38.3,45.8,42.5,37.5,98,67,34,30.29,30.13,8,3,8,0.00
2013-5-5,69.4,53.2,41.4,44.8,41.5,39.8,95,68,38,30.20,30.09,11,3,11,0.00
2013-5-6,62.6,54.1,41.9,56.7,49.3,40.8,96,84,73,30.14,30.02,10,3,10,0.09
2013-5-7,62.8,59.7,57.6,59.7,56.8,54.8,93,90,86,30.03,29.92,9,3,9,0.86
2013-5-8,73.6,60.8,52.7,58.9,55.4,51.0,97,84,52,29.96,29.89,9,1,9,0.19
2013-5-9,75.9,61.6,50.5,60.0,55.0,50.0,98,81,51,29.97,29.88,8,2,8,0.01
2013-5-10,87.8,65.9,50.0,63.7,56.5,49.2,97,76,40,29.98,29.85,15,3,15,0.47
2013-5-11,77.7,65.6,60.8,65.2,62.0,58.2,98,89,63,29.86,29.71,7,1,7,0.35
2013-5-12,63.7,55.9,42.3,55.8,37.9,27.0,95,55,27,29.99,29.74,11,4,11,0.00
2013-5-13,61.3,51.7,37.4,35.2,28.6,22.5,88,45,23,30.07,29.98,12,3,14,0.00
2013-5-14,66.2,48.1,31.5,43.5,33.0,29.4,92,61,30,30.16,29.99,8,2,8,0.00
2013-5-15,84.6,63.0,46.9,65.6,53.6,43.9,90,73,49,30.00,29.66,8,2,8,0.00
2013-5-16,82.8,68.5,59.7,64.1,60.6,57.1,91,77,51,29.92,29.73,9,2,9,0.04
2013-5-17,85.6,69.7,54.0,61.3,55.8,45.0,97,66,30,30.11,29.92,5,2,5,0.00
2013-5-18,67.1,62.7,58.6,57.5,54.9,51.9,89,76,64,30.19,30.11,7,2,7,0.00
2013-5-19,72.0,64.0,58.5,64.9,60.2,55.4,94,88,76,30.17,30.06,5,1,5,0.00
2013-5-20,86.2,71.6,64.2,68.4,64.9,62.2,96,81,54,30.09,29.96,7,2,7,0.00
2013-5-21,90.5,74.8,61.5,71.9,66.4,60.4,96,77,53,29.98,29.85,8,2,8,0.00
2013-5-22,93.6,76.8,62.6,73.0,66.8,61.1,97,75,44,29.91,29.80,8,3,8,0.35
2013-5-23,80.4,69.1,63.3,69.3,65.1,61.9,98,88,64,29.88,29.74,7,1,7,0.21
2013-5-24,63.1,59.2,52.7,61.8,56.2,46.0,97,90,78,29.91,29.73,12,3,12,0.02
2013-5-25,68.0,53.0,37.8,40.7,36.5,33.7,87,57,33,30.14,30.04,16,4,16,0.00
2013-5-26,71.6,53.5,40.6,39.7,37.6,35.8,87,59,27,30.17,30.11,11,3,11,0.00
2013-5-27,56.8,56.2,55.9,52.4,51.6,51.0,85,84,83,30.17,30.16,2,1,2,0.00
2013-5-28,80.6,64.3,53.8,65.5,57.7,50.0,95,80,55,30.17,30.04,8,2,8,0.02
2013-5-29,92.5,73.5,57.6,68.9,63.0,56.7,98,74,42,30.09,30.04,6,2,6,0.00
2013-5-30,94.8,77.4,60.4,70.8,65.0,59.3,96,70,41,30.17,30.08,4,2,4,0.00
2013-5-31,93.4,76.4,61.5,69.3,64.3,60.0,96,71,37,30.14,30.01,5,2,5,0.00
2013-6-1,94.1,76.6,61.3,70.8,66.0,59.9,95,73,45,30.02,29.90,7,2,7,0.00
2013-6-2,83.8,71.9,62.8,73.8,67.2,61.6,97,86,65,29.90,29.82,6,1,6,0.07
2013-6-3,84.2,71.6,58.8,69.6,63.6,54.6,97,78,49,29.95,29.83,5,1,5,0.43
2013-6-4,79.9,63.6,47.5,54.9,49.7,44.7,96,65,33,30.11,29.96,6,2,6,0.00
2013-6-5,82.4,66.5,49.6,58.3,53.3,48.5,96,67,42,30.15,30.02,8,3,8,0.00
2013-6-6,70.9,63.6,57.0,63.1,58.5,51.0,95,84,68,30.05,29.88,4,1,8,0.79
2013-6-7,72.5,66.9,62.8,68.4,64.5,61.0,98,92,83,29.85,29.63,2,1,2,0.54
2013-6-8,83.5,68.9,59.9,63.9,60.9,57.7,95,78,48,30.09,29.72,7,2,7,0.00
2013-6-9,79.2,65.6,58.6,67.3,61.3,57.2,97,87,55,30.18,30.08,3,1,3,0.11
2013-6-10,81.7,70.6,65.8,73.8,68.3,65.0,97,93,76,30.10,29.77,6,1,6,0.67
2013-6-11,81.3,71.1,61.9,69.3,64.7,61.0,98,82,59,29.83,29.78,11,2,11,0.01
2013-6-12,90.7,75.1,62.6,70.6,66.3,60.8,97,77,45,29.86,29.78,7,1,7,0.00
2013-6-13,86.2,70.7,65.3,69.6,64.0,57.6,97,81,54,29.81,29.48,8,3,8,0.45
2013-6-14,68.2,68.2,68.2,57.6,57.6,57.6,69,69,69,29.59,29.59,6,6,6,0.00